Time;durP1;ratioP1;P1;durP2;ratioP2;P2;SDS_P1;SDS_P2;PMS_P1;PMS_P2;Temp;Humidity;BMP_temperature;BMP_pressure;BME280_temperature;BME280_humidity;BME280_pressure;Samples;Min_cycle;Max_cycle;Signal;HPM_P1;HPM_P2
2022/01/12 00:01:27;;;;;;;11.00;9.87;;;;;;;-0.91;100.00;102155.81;5030405;28;20196;-49
2022/01/12 00:03:53;;;;;;;11.43;10.23;;;;;;;-0.97;100.00;102156.25;5028375;28;20212;-49
2022/01/12 00:06:18;;;;;;;10.30;9.00;;;;;;;-1.03;100.00;102154.94;5032034;28;20241;-49
2022/01/12 00:08:44;;;;;;;9.33;8.33;;;;;;;-1.10;100.00;102159.63;5026061;28;20535;-49
2022/01/12 00:11:09;;;;;;;9.57;8.43;;;;;;;-1.15;100.00;102163.50;5029011;28;20192;-49
2022/01/12 00:13:36;;;;;;;9.80;8.63;;;;;;;-1.21;100.00;102162.19;5024141;28;20701;-50
2022/01/12 00:16:03;;;;;;;8.90;8.00;;;;;;;-1.26;100.00;102165.28;5025000;28;20604;-50
2022/01/12 00:18:29;;;;;;;11.03;8.33;;;;;;;-1.30;100.00;102159.91;5029606;28;20211;-50
2022/01/12 00:20:55;;;;;;;10.20;9.10;;;;;;;-1.33;100.00;102165.66;5026246;28;20211;-50
2022/01/12 00:23:21;;;;;;;10.07;8.97;;;;;;;-1.36;100.00;102167.13;5029665;28;20603;-49
2022/01/12 00:33:56;;;;;;;10.27;8.83;;;;;;;-1.42;100.00;102145.56;5021357;28;20263;-49
2022/01/12 00:36:21;;;;;;;9.67;8.70;;;;;;;-1.43;100.00;102148.00;5031178;28;20184;-49
2022/01/12 00:38:47;;;;;;;11.87;10.23;;;;;;;-1.46;100.00;102153.75;5027826;28;20220;-49
2022/01/12 00:41:16;;;;;;;11.43;10.23;;;;;;;-1.45;100.00;102147.03;5028827;28;20246;-51
2022/01/12 00:43:44;;;;;;;11.43;10.10;;;;;;;-1.48;100.00;102154.44;5024129;28;20198;-50
2022/01/12 00:46:09;;;;;;;10.87;9.23;;;;;;;-1.50;100.00;102158.50;5027703;28;20202;-50
2022/01/12 00:48:36;;;;;;;10.90;9.87;;;;;;;-1.53;100.00;102156.66;5027698;28;20228;-49
2022/01/12 00:51:03;;;;;;;11.37;9.63;;;;;;;-1.55;100.00;102153.13;5027140;28;20190;-50
2022/01/12 00:53:29;;;;;;;12.10;10.00;;;;;;;-1.54;100.00;102152.34;5027235;28;20261;-49
2022/01/12 00:55:54;;;;;;;11.23;10.00;;;;;;;-1.57;100.00;102155.53;5027083;28;20194;-49
2022/01/12 00:58:20;;;;;;;11.47;10.17;;;;;;;-1.59;100.00;102153.66;5029992;28;20593;-49
2022/01/12 01:00:45;;;;;;;11.30;10.10;;;;;;;-1.61;100.00;102153.56;5018936;28;20277;-50
2022/01/12 01:03:10;;;;;;;10.87;9.67;;;;;;;-1.64;100.00;102149.91;5023909;28;20745;-49
2022/01/12 01:05:36;;;;;;;9.17;8.20;;;;;;;-1.65;100.00;102149.03;5029066;28;20202;-49
2022/01/12 01:08:02;;;;;;;9.97;8.67;;;;;;;-1.67;100.00;102149.72;5027759;28;20622;-49
2022/01/12 01:10:44;;;;;;;;;;;;;;;;;;;;;
2022/01/12 01:12:57;;;;;;;10.57;8.83;;;;;;;-1.72;100.00;102149.34;5023873;28;20193;-50
2022/01/12 01:26:22;;;;;;;10.00;9.00;;;;;;;-1.79;100.00;102152.25;5015923;28;20199;-51
2022/01/12 01:28:47;;;;;;;11.07;9.83;;;;;;;-1.80;100.00;102155.56;5023242;28;20221;-49
2022/01/12 01:31:12;;;;;;;10.90;8.80;;;;;;;-1.82;100.00;102152.03;5024294;28;20202;-51
2022/01/12 01:33:38;;;;;;;10.83;9.13;;;;;;;-1.84;100.00;102159.53;5021954;28;20250;-48
2022/01/12 01:36:03;;;;;;;12.43;11.10;;;;;;;-1.84;100.00;102174.78;5017514;28;20224;-51
2022/01/12 01:38:28;;;;;;;12.33;11.03;;;;;;;-1.83;100.00;102181.63;5027941;28;20212;-50
2022/01/12 01:40:54;;;;;;;12.13;10.83;;;;;;;-1.80;100.00;102181.81;5021122;28;20206;-49
2022/01/12 01:43:36;;;;;;;11.53;10.33;;;;;;;-1.82;100.00;102185.91;5028255;28;20249;-49
2022/01/12 01:54:18;;;;;;;12.97;11.57;;;;;;;-1.64;100.00;102191.44;5021757;28;20199;-49
2022/01/12 01:56:43;;;;;;;12.90;11.53;;;;;;;-1.56;100.00;102192.84;5025663;28;20221;-49
2022/01/12 01:59:08;;;;;;;15.30;12.30;;;;;;;-1.52;100.00;102198.16;5015999;28;20649;-49
2022/01/12 02:01:34;;;;;;;14.07;12.13;;;;;;;-1.53;100.00;102192.19;5023791;28;20193;-49
2022/01/12 02:04:02;;;;;;;13.40;12.00;;;;;;;-1.54;100.00;102187.88;5020866;28;20236;-49
2022/01/12 02:06:28;;;;;;;15.77;13.30;;;;;;;-1.56;100.00;102192.84;5028024;28;20229;-49
2022/01/12 02:08:54;;;;;;;16.30;12.50;;;;;;;-1.58;100.00;102191.84;5020074;28;20219;-49
2022/01/12 02:11:28;;;;;;;16.33;13.20;;;;;;;-1.60;100.00;102193.41;5021057;28;20558;-49
2022/01/12 02:13:54;;;;;;;16.20;12.93;;;;;;;-1.64;100.00;102180.38;5022385;28;20259;-49
2022/01/12 02:16:27;;;;;;;14.77;12.67;;;;;;;-1.70;100.00;102175.75;5033012;28;20609;-49
2022/01/12 02:35:33;;;;;;;15.13;12.37;;;;;;;-2.00;100.00;102187.97;5025608;28;20495;-51
2022/01/12 02:40:48;;;;;;;15.30;12.70;;;;;;;-2.02;100.00;102175.19;5020965;28;20666;-49
2022/01/12 02:43:28;;;;;;;14.63;11.53;;;;;;;-2.00;100.00;102181.28;5026839;28;20312;-49
2022/01/12 02:53:50;;;;;;;13.87;11.73;;;;;;;-1.86;100.00;102168.69;5024301;28;20189;-51
2022/01/12 02:56:19;;;;;;;14.23;10.83;;;;;;;-1.85;100.00;102176.41;5027162;28;20194;-51
2022/01/12 02:58:46;;;;;;;14.73;11.57;;;;;;;-1.87;100.00;102184.69;5020106;28;20686;-49
2022/01/12 03:03:46;;;;;;;13.77;12.33;;;;;;;-1.83;100.00;102189.22;5020658;28;20294;-49
2022/01/12 03:06:17;;;;;;;17.20;13.33;;;;;;;-1.78;100.00;102195.50;5020267;28;20255;-49
2022/01/12 03:08:42;;;;;;;17.10;12.43;;;;;;;-1.82;100.00;102195.16;5024440;28;20632;-49
2022/01/12 03:11:10;;;;;;;14.57;11.90;;;;;;;-1.86;100.00;102187.34;5026753;28;20179;-49
2022/01/12 03:13:36;;;;;;;13.70;11.73;;;;;;;-1.87;100.00;102190.63;5023390;28;20191;-50
2022/01/12 03:16:11;;;;;;;15.20;12.57;;;;;;;-1.88;100.00;102182.94;5022871;28;20267;-49
2022/01/12 03:18:37;;;;;;;14.13;12.10;;;;;;;-1.88;100.00;102185.47;5017552;28;20572;-50
2022/01/12 03:21:03;;;;;;;12.60;11.30;;;;;;;-1.90;100.00;102192.97;5026398;28;20192;-49
2022/01/12 03:23:28;;;;;;;13.03;11.07;;;;;;;-1.84;100.00;102197.63;5025448;28;20214;-50
2022/01/12 03:25:54;;;;;;;14.93;12.27;;;;;;;-1.89;100.00;102184.56;5037637;28;20184;-50
2022/01/12 03:28:20;;;;;;;13.87;11.57;;;;;;;-1.90;100.00;102187.91;5026802;28;20642;-49
2022/01/12 03:31:02;;;;;;;15.03;12.33;;;;;;;-1.90;100.00;102182.81;5028597;28;20244;-49
2022/01/12 03:36:41;;;;;;;13.27;10.83;;;;;;;-1.96;100.00;102177.28;5016168;28;20201;-50
2022/01/12 03:39:13;;;;;;;13.00;10.87;;;;;;;-1.98;100.00;102183.91;5031570;28;20207;-50
2022/01/12 03:41:43;;;;;;;12.97;10.90;;;;;;;-2.01;100.00;102179.50;5032239;28;20193;-49
2022/01/12 03:44:10;;;;;;;13.73;11.20;;;;;;;-2.04;100.00;102175.88;5029569;28;20248;-49
2022/01/12 03:46:36;;;;;;;12.10;10.67;;;;;;;-2.10;100.00;102172.88;5025727;28;20202;-49
2022/01/12 03:49:01;;;;;;;11.13;9.90;;;;;;;-2.16;100.00;102171.63;5027811;28;20213;-49
2022/01/12 03:51:27;;;;;;;13.57;10.77;;;;;;;-2.20;100.00;102174.75;5029651;28;20378;-49
2022/01/12 03:53:52;;;;;;;12.33;10.60;;;;;;;-2.20;100.00;102184.00;5031496;28;20194;-50
2022/01/12 03:56:18;;;;;;;12.33;10.67;;;;;;;-2.23;100.00;102183.75;5023096;28;20242;-49
2022/01/12 03:58:43;;;;;;;12.47;10.80;;;;;;;-2.26;100.00;102178.44;5026420;28;20217;-49
2022/01/12 04:01:09;;;;;;;13.57;10.90;;;;;;;-2.27;100.00;102177.59;5019968;28;20236;-50
2022/01/12 04:03:40;;;;;;;12.93;11.30;;;;;;;-2.28;100.00;102177.50;5027867;28;20240;-49
2022/01/12 04:08:50;;;;;;;13.17;10.50;;;;;;;-2.25;100.00;102177.69;5030753;28;20221;-49
2022/01/12 04:11:15;;;;;;;13.60;11.10;;;;;;;-2.24;100.00;102184.53;5026936;28;20189;-49
2022/01/12 04:13:42;;;;;;;13.00;11.60;;;;;;;-2.24;100.00;102182.91;5029203;28;20257;-49
2022/01/12 04:16:08;;;;;;;13.50;11.00;;;;;;;-2.25;100.00;102191.28;5036372;28;20185;-49
2022/01/12 04:18:34;;;;;;;12.30;11.00;;;;;;;-2.20;100.00;102201.75;5025296;28;20216;-49
2022/01/12 04:21:03;;;;;;;13.70;11.73;;;;;;;-2.15;100.00;102203.84;5022775;28;20318;-49
2022/01/12 04:23:29;;;;;;;13.30;11.57;;;;;;;-2.12;100.00;102203.22;5026704;28;20215;-49
2022/01/12 04:25:58;;;;;;;12.23;10.93;;;;;;;-2.15;100.00;102193.69;5027485;28;20193;-51
2022/01/12 04:28:25;;;;;;;15.00;12.17;;;;;;;-2.18;100.00;102185.84;5032499;28;20216;-50
2022/01/12 04:30:53;;;;;;;12.60;11.30;;;;;;;-2.13;100.00;102187.84;5020820;28;21564;-48
2022/01/12 04:33:19;;;;;;;15.23;12.47;;;;;;;-2.11;100.00;102178.72;5024385;28;20211;-50
2022/01/12 04:35:52;;;;;;;14.03;11.43;;;;;;;-2.11;100.00;102176.19;5043328;28;20248;-51
2022/01/12 04:38:20;;;;;;;13.00;11.60;;;;;;;-2.14;100.00;102189.53;5048748;28;20550;-50
2022/01/12 04:40:46;;;;;;;12.23;10.60;;;;;;;-2.18;100.00;102192.59;5024747;28;20192;-50
2022/01/12 04:43:12;;;;;;;12.17;10.73;;;;;;;-2.23;100.00;102204.06;5030135;28;20259;-50
2022/01/12 04:45:56;;;;;;;12.73;10.50;;;;;;;-2.30;100.00;102216.28;5027815;28;20191;-50
2022/01/12 04:50:51;;;;;;;12.53;11.23;;;;;;;-2.24;100.00;102228.53;5020106;28;20275;-50
2022/01/12 04:53:19;;;;;;;12.37;11.07;;;;;;;-2.19;100.00;102236.50;5029864;28;20211;-50
2022/01/12 04:55:46;;;;;;;13.03;11.60;;;;;;;-2.09;100.00;102238.94;5028641;28;20185;-50
2022/01/12 04:58:12;;;;;;;13.73;12.17;;;;;;;-2.07;100.00;102257.69;5025107;28;20216;-50
2022/01/12 05:00:38;;;;;;;13.10;11.40;;;;;;;-2.01;100.00;102255.63;5024477;28;20248;-50
2022/01/12 05:13:48;;;;;;;12.90;11.03;;;;;;;-2.03;100.00;102246.09;5015734;28;20293;-49
2022/01/12 05:16:14;;;;;;;11.93;10.40;;;;;;;-2.00;100.00;102247.25;5030577;28;20220;-49
2022/01/12 05:18:42;;;;;;;11.97;10.77;;;;;;;-2.04;100.00;102247.78;5023805;28;20280;-49
2022/01/12 05:21:08;;;;;;;12.20;11.00;;;;;;;-2.04;100.00;102244.38;5024479;28;20208;-49
2022/01/12 05:23:34;;;;;;;12.90;11.20;;;;;;;-2.07;100.00;102237.41;5028355;28;20219;-48
2022/01/12 05:26:04;;;;;;;13.87;11.50;;;;;;;-2.12;100.00;102240.38;5018821;28;20187;-49
2022/01/12 05:28:30;;;;;;;13.53;11.97;;;;;;;-2.15;100.00;102235.97;5018745;28;20593;-49
2022/01/12 05:30:56;;;;;;;14.27;12.10;;;;;;;-2.20;100.00;102253.38;5030408;28;21173;-49
2022/01/12 05:33:24;;;;;;;13.13;11.70;;;;;;;-2.20;100.00;102263.53;5017010;28;20212;-51
2022/01/12 05:35:54;;;;;;;13.60;12.20;;;;;;;-2.19;100.00;102270.34;5019789;28;20701;-51
2022/01/12 05:38:20;;;;;;;16.07;13.50;;;;;;;-2.19;100.00;102277.09;5022236;28;20228;-51
2022/01/12 05:40:52;;;;;;;14.53;11.93;;;;;;;-2.15;100.00;102268.94;5026231;28;20648;-49
2022/01/12 05:43:23;;;;;;;14.43;12.97;;;;;;;-2.11;100.00;102270.91;5026608;28;20211;-49
2022/01/12 05:45:50;;;;;;;14.30;12.40;;;;;;;-2.13;100.00;102264.88;5022418;28;20668;-49
2022/01/12 05:50:42;;;;;;;13.63;12.20;;;;;;;-2.16;100.00;102267.16;5025088;28;20185;-49
2022/01/12 05:53:08;;;;;;;15.40;12.37;;;;;;;-2.11;100.00;102257.34;5022313;28;20197;-49
2022/01/12 05:55:33;;;;;;;12.60;11.13;;;;;;;-2.10;100.00;102271.81;5010746;28;20325;-49
2022/01/12 05:57:59;;;;;;;13.83;11.37;;;;;;;-2.09;100.00;102277.00;5015083;28;20585;-49
2022/01/12 06:00:27;;;;;;;12.37;11.07;;;;;;;-2.11;100.00;102270.03;5026766;28;20180;-49
2022/01/12 06:02:52;;;;;;;13.70;10.87;;;;;;;-2.11;100.00;102275.13;5020733;28;20369;-49
2022/01/12 06:05:19;;;;;;;13.90;11.63;;;;;;;-2.16;100.00;102277.31;5024019;28;20203;-49
2022/01/12 06:07:49;;;;;;;15.23;11.33;;;;;;;-2.21;100.00;102273.53;5022571;28;20199;-49
2022/01/12 06:10:15;;;;;;;12.90;11.07;;;;;;;-2.25;100.00;102274.06;5026772;28;20175;-49
2022/01/12 06:12:41;;;;;;;11.93;10.47;;;;;;;-2.28;100.00;102278.94;5025553;28;20196;-49
2022/01/12 06:15:07;;;;;;;13.27;11.00;;;;;;;-2.28;100.00;102278.94;5027486;28;20545;-49
2022/01/12 06:17:33;;;;;;;13.63;10.77;;;;;;;-2.30;100.00;102269.56;5014277;28;21260;-49
2022/01/12 06:19:59;;;;;;;14.80;11.67;;;;;;;-2.32;100.00;102277.78;5010877;28;20199;-48
2022/01/12 06:22:24;;;;;;;12.83;11.27;;;;;;;-2.35;100.00;102273.38;5016957;28;20208;-49
2022/01/12 06:24:51;;;;;;;12.27;10.97;;;;;;;-2.35;100.00;102262.38;5009199;28;20908;-49
2022/01/12 06:27:18;;;;;;;10.90;9.80;;;;;;;-2.40;100.00;102261.13;5021546;28;20207;-50
2022/01/12 06:29:51;;;;;;;12.87;11.07;;;;;;;-2.43;100.00;102258.34;5020283;28;20183;-49
2022/01/12 06:32:16;;;;;;;14.83;11.57;;;;;;;-2.43;100.00;102255.81;5021356;28;20180;-51
2022/01/12 06:34:42;;;;;;;13.57;11.13;;;;;;;-2.47;100.00;102239.50;5016630;28;20557;-49
2022/01/12 06:37:07;;;;;;;12.97;10.97;;;;;;;-2.50;100.00;102251.94;5018084;28;20711;-49
2022/01/12 06:39:33;;;;;;;11.83;10.63;;;;;;;-2.54;100.00;102263.50;5020782;28;20193;-51
2022/01/12 06:41:58;;;;;;;12.23;10.37;;;;;;;-2.54;100.00;102250.81;5018148;28;20648;-49
2022/01/12 06:44:25;;;;;;;12.33;11.00;;;;;;;-2.54;100.00;102253.38;5020590;28;20191;-51
2022/01/12 06:46:53;;;;;;;12.27;10.73;;;;;;;-2.57;100.00;102255.66;5021927;28;20664;-49
2022/01/12 06:49:19;;;;;;;14.67;13.03;;;;;;;-2.53;100.00;102265.28;5015195;28;20187;-50
2022/01/12 06:51:46;;;;;;;13.37;11.70;;;;;;;-2.52;100.00;102267.03;5016354;28;20187;-49
2022/01/12 06:54:13;;;;;;;14.70;12.47;;;;;;;-2.50;100.00;102264.63;5014938;28;20197;-50
2022/01/12 06:56:40;;;;;;;16.27;12.80;;;;;;;-2.52;100.00;102259.44;5010963;28;20224;-49
2022/01/12 06:59:06;;;;;;;14.93;12.83;;;;;;;-2.48;100.00;102258.88;5028260;28;20208;-51
2022/01/12 07:01:32;;;;;;;14.20;12.30;;;;;;;-2.43;100.00;102258.34;5025868;28;20189;-49
2022/01/12 07:03:58;;;;;;;16.73;12.97;;;;;;;-2.39;100.00;102261.22;5019818;28;20206;-49
2022/01/12 07:06:24;;;;;;;15.30;12.80;;;;;;;-2.41;100.00;102269.50;5025665;28;20204;-49
2022/01/12 07:08:49;;;;;;;14.33;12.60;;;;;;;-2.37;100.00;102267.31;5027549;28;20207;-50
2022/01/12 07:11:15;;;;;;;16.47;13.17;;;;;;;-2.37;100.00;102280.00;5027730;28;20236;-50
2022/01/12 07:13:41;;;;;;;15.47;13.57;;;;;;;-2.36;100.00;102274.16;5025999;28;20179;-49
2022/01/12 07:16:06;;;;;;;14.67;12.67;;;;;;;-2.33;100.00;102273.50;5024381;28;20195;-49
2022/01/12 07:18:32;;;;;;;14.37;12.47;;;;;;;-2.35;100.00;102286.06;5027782;28;20208;-49
2022/01/12 07:20:58;;;;;;;14.17;12.37;;;;;;;-2.34;100.00;102300.50;5023790;28;20718;-49
2022/01/12 07:23:24;;;;;;;14.60;12.43;;;;;;;-2.25;100.00;102314.66;5027249;28;20211;-49
2022/01/12 07:25:50;;;;;;;14.17;12.10;;;;;;;-2.26;100.00;102321.38;5021821;28;20208;-49
2022/01/12 07:28:16;;;;;;;13.90;12.47;;;;;;;-2.27;100.00;102329.75;5025752;28;20196;-50
2022/01/12 07:30:41;;;;;;;17.40;12.13;;;;;;;-2.30;100.00;102332.06;5019317;28;20201;-50
2022/01/12 07:33:07;;;;;;;14.60;12.00;;;;;;;-2.31;100.00;102338.81;5027235;28;20184;-50
2022/01/12 07:35:32;;;;;;;13.87;12.20;;;;;;;-2.33;100.00;102345.41;5019109;28;20677;-49
2022/01/12 07:37:58;;;;;;;12.47;11.20;;;;;;;-2.33;100.00;102354.66;5018853;28;20213;-50
2022/01/12 07:40:23;;;;;;;13.43;11.97;;;;;;;-2.31;100.00;102359.09;5022566;28;20194;-50
2022/01/12 07:42:50;;;;;;;12.33;10.93;;;;;;;-2.30;100.00;102358.31;5027840;28;20204;-49
2022/01/12 07:45:16;;;;;;;12.90;11.10;;;;;;;-2.25;100.00;102365.38;5021802;28;20263;-50
2022/01/12 07:47:42;;;;;;;11.67;10.17;;;;;;;-2.25;100.00;102373.91;5013514;28;20232;-49
2022/01/12 07:50:08;;;;;;;11.13;10.00;;;;;;;-2.23;100.00;102372.34;5023156;28;20666;-49
2022/01/12 07:52:34;;;;;;;13.10;10.80;;;;;;;-2.20;100.00;102375.13;5015919;28;20223;-49
2022/01/12 07:54:59;;;;;;;12.20;10.17;;;;;;;-2.14;100.00;102367.13;5020172;28;20195;-50
2022/01/12 07:57:25;;;;;;;12.03;10.40;;;;;;;-2.08;100.00;102375.16;5019181;28;20203;-50
2022/01/12 07:59:51;;;;;;;10.90;9.73;;;;;;;-1.99;100.00;102375.00;5021855;28;20267;-49
2022/01/12 08:02:16;;;;;;;13.27;11.27;;;;;;;-1.95;100.00;102359.22;5017521;28;20202;-50
2022/01/12 08:04:41;;;;;;;12.43;9.87;;;;;;;-1.90;100.00;102383.31;5029399;28;20593;-50
2022/01/12 08:07:10;;;;;;;11.30;9.87;;;;;;;-1.84;100.00;102377.81;5022556;28;20218;-49
2022/01/12 08:09:39;;;;;;;10.43;9.00;;;;;;;-1.79;100.00;102368.00;5045059;28;20256;-49
2022/01/12 08:14:39;;;;;;;9.77;8.77;;;;;;;-1.69;100.00;102378.97;5196152;23;20247;-46
2022/01/12 08:17:05;;;;;;;10.70;9.60;;;;;;;-1.65;100.00;102380.06;4977577;28;20186;-48
2022/01/12 08:19:34;;;;;;;12.63;11.33;;;;;;;-1.64;100.00;102381.84;4986081;28;20288;-47
2022/01/12 08:21:59;;;;;;;11.47;9.70;;;;;;;-1.61;100.00;102376.09;4989888;28;20355;-46
2022/01/12 08:24:25;;;;;;;12.90;10.60;;;;;;;-1.56;100.00;102383.28;4994697;28;20713;-46
2022/01/12 08:26:50;;;;;;;10.57;9.47;;;;;;;-1.51;100.00;102382.75;4991786;28;20573;-46
2022/01/12 08:29:16;;;;;;;11.00;9.80;;;;;;;-1.46;100.00;102392.47;4991302;28;20197;-46
2022/01/12 08:31:46;;;;;;;10.03;9.00;;;;;;;-1.42;100.00;102394.47;4990475;28;20193;-46
2022/01/12 08:34:12;;;;;;;9.80;8.80;;;;;;;-1.35;100.00;102408.50;4989903;28;20228;-47
2022/01/12 08:36:39;;;;;;;10.57;9.47;;;;;;;-1.30;100.00;102401.22;4986192;28;20203;-47
2022/01/12 08:39:08;;;;;;;9.60;8.60;;;;;;;-1.27;100.00;102393.84;4996552;28;20649;-47
2022/01/12 08:41:36;;;;;;;10.77;9.20;;;;;;;-1.22;100.00;102407.78;4986469;28;20608;-47
2022/01/12 08:44:03;;;;;;;11.10;10.00;;;;;;;-1.20;100.00;102407.88;4990029;28;20693;-47
2022/01/12 08:46:29;;;;;;;11.50;10.37;;;;;;;-1.15;100.00;102416.72;4990864;28;20218;-47
2022/01/12 08:48:54;;;;;;;11.60;10.50;;;;;;;-1.11;100.00;102416.16;4991581;28;20224;-47
2022/01/12 08:51:19;;;;;;;16.27;13.17;;;;;;;-1.06;100.00;102417.38;4991012;28;20618;-47
2022/01/12 08:53:45;;;;;;;13.20;11.80;;;;;;;-1.00;100.00;102410.22;4989963;28;20206;-46
2022/01/12 08:56:10;;;;;;;16.30;12.30;;;;;;;-0.92;100.00;102413.31;4991027;28;20190;-47
2022/01/12 08:58:37;;;;;;;14.67;10.67;;;;;;;-0.85;100.00;102410.44;4990760;28;20229;-47
2022/01/12 09:01:03;;;;;;;13.90;12.30;;;;;;;-0.76;100.00;102428.00;4988239;28;20178;-47
2022/01/12 09:03:30;;;;;;;13.23;11.63;;;;;;;-0.70;100.00;102425.00;4991153;28;20724;-47
2022/01/12 09:05:56;;;;;;;12.03;10.73;;;;;;;-0.65;100.00;102437.28;4991384;28;20195;-46
2022/01/12 09:08:22;;;;;;;12.00;10.80;;;;;;;-0.60;100.00;102424.03;4988958;28;20197;-47
2022/01/12 09:10:47;;;;;;;12.37;11.07;;;;;;;-0.56;100.00;102429.44;4990335;28;20191;-47
2022/01/12 09:13:13;;;;;;;12.20;10.90;;;;;;;-0.52;100.00;102443.25;4998351;28;20251;-47
2022/01/12 09:15:38;;;;;;;12.73;10.97;;;;;;;-0.47;100.00;102452.09;4991999;28;20640;-46
2022/01/12 09:18:03;;;;;;;13.93;12.53;;;;;;;-0.40;100.00;102449.22;5001971;28;20201;-47
2022/01/12 09:20:29;;;;;;;13.30;11.93;;;;;;;-0.36;100.00;102453.72;4994621;28;20233;-46
2022/01/12 09:22:54;;;;;;;14.57;12.93;;;;;;;-0.27;100.00;102457.72;4998452;28;20224;-46
2022/01/12 09:25:20;;;;;;;13.80;12.43;;;;;;;-0.27;100.00;102460.25;4991730;28;20205;-47
2022/01/12 09:27:46;;;;;;;15.07;13.40;;;;;;;-0.28;100.00;102466.13;4991964;28;20192;-46
2022/01/12 09:30:14;;;;;;;15.10;13.10;;;;;;;-0.24;100.00;102466.44;4991085;28;20194;-46
2022/01/12 09:32:39;;;;;;;18.83;14.03;;;;;;;-0.17;100.00;102475.38;4988542;28;20203;-47
2022/01/12 09:35:06;;;;;;;15.37;12.77;;;;;;;-0.11;100.00;102477.47;4985109;28;20202;-49
2022/01/12 09:37:31;;;;;;;18.13;13.97;;;;;;;-0.06;100.00;102484.66;4987751;28;20199;-47
2022/01/12 09:39:57;;;;;;;15.00;12.63;;;;;;;-0.03;100.00;102489.97;4980053;28;20797;-47
2022/01/12 09:42:22;;;;;;;13.93;12.53;;;;;;;0.04;100.00;102498.03;4980892;28;20214;-48
2022/01/12 09:44:48;;;;;;;13.87;12.17;;;;;;;0.07;100.00;102494.03;4992231;28;20222;-48
2022/01/12 09:47:15;;;;;;;13.47;12.07;;;;;;;0.14;100.00;102501.34;4994215;28;20220;-48
2022/01/12 09:49:43;;;;;;;14.40;11.87;;;;;;;0.20;100.00;102503.44;4986805;28;20238;-48
2022/01/12 09:52:09;;;;;;;14.77;13.27;;;;;;;0.30;100.00;102499.84;4988909;28;20195;-48
2022/01/12 09:54:36;;;;;;;13.43;12.13;;;;;;;0.36;100.00;102507.91;4984262;28;20261;-46
2022/01/12 09:57:02;;;;;;;13.73;11.50;;;;;;;0.41;100.00;102514.19;4986464;28;20190;-46
2022/01/12 09:59:27;;;;;;;12.47;11.20;;;;;;;0.48;100.00;102507.88;4977773;28;20208;-46
2022/01/12 10:01:54;;;;;;;11.77;10.50;;;;;;;0.56;100.00;102510.94;4980573;28;20191;-47
2022/01/12 10:04:28;;;;;;;11.43;10.23;;;;;;;0.64;100.00;102506.34;4987534;28;20211;-46
2022/01/12 10:06:59;;;;;;;12.10;10.90;;;;;;;0.68;100.00;102519.41;4988620;28;20238;-46
2022/01/12 10:09:30;;;;;;;12.47;11.23;;;;;;;0.73;100.00;102510.41;4974732;28;20598;-46
2022/01/12 10:11:57;;;;;;;11.40;10.30;;;;;;;0.81;100.00;102507.47;4988979;28;20276;-46
2022/01/12 10:14:24;;;;;;;11.97;10.20;;;;;;;0.88;100.00;102495.25;4990036;28;20217;-46
2022/01/12 10:16:55;;;;;;;11.73;10.53;;;;;;;0.94;100.00;102499.84;4988408;28;20243;-47
2022/01/12 10:19:29;;;;;;;11.13;10.07;;;;;;;0.97;100.00;102499.19;4987062;28;20204;-49
2022/01/12 10:21:55;;;;;;;11.53;10.40;;;;;;;0.96;100.00;102513.59;4988581;28;20208;-46
2022/01/12 10:24:22;;;;;;;12.37;11.17;;;;;;;0.95;100.00;102509.28;4978713;28;20221;-48
2022/01/12 10:26:48;;;;;;;12.00;10.77;;;;;;;0.98;100.00;102513.72;4989142;28;20597;-46
2022/01/12 10:29:19;;;;;;;12.90;11.53;;;;;;;1.01;100.00;102524.09;4986439;28;20304;-47
2022/01/12 10:32:01;;;;;;;13.43;12.13;;;;;;;1.05;100.00;102518.44;4995784;28;20191;-47
2022/01/12 10:34:35;;;;;;;13.03;11.63;;;;;;;1.05;99.48;102513.31;4980770;28;20315;-47
2022/01/12 10:37:00;;;;;;;12.60;11.30;;;;;;;1.06;98.88;102504.91;4993786;28;20555;-47
2022/01/12 10:39:27;;;;;;;13.00;11.70;;;;;;;1.13;99.48;102512.19;4983171;28;20182;-47
2022/01/12 10:41:53;;;;;;;13.13;11.83;;;;;;;1.23;99.68;102497.47;4979388;28;20657;-47
2022/01/12 10:44:20;;;;;;;14.23;12.83;;;;;;;1.27;99.47;102502.84;4989420;28;20211;-47
2022/01/12 10:46:46;;;;;;;12.07;10.87;;;;;;;1.35;99.26;102503.34;4989134;28;20207;-47
2022/01/12 10:49:18;;;;;;;12.13;10.83;;;;;;;1.44;99.11;102496.28;4989096;28;20185;-47
2022/01/12 10:51:54;;;;;;;11.53;10.33;;;;;;;1.52;98.98;102502.78;4983975;28;20692;-47
2022/01/12 10:54:19;;;;;;;10.80;9.73;;;;;;;1.63;98.80;102506.00;4995719;28;20218;-47
2022/01/12 10:56:44;;;;;;;13.33;11.40;;;;;;;1.69;98.36;102505.53;4983040;28;20190;-47
2022/01/12 10:59:18;;;;;;;12.87;10.97;;;;;;;1.67;96.38;102494.31;4983974;28;20255;-47
2022/01/12 11:01:43;;;;;;;10.97;9.87;;;;;;;1.73;97.16;102484.50;4977800;28;20575;-47
2022/01/12 11:04:09;;;;;;;12.70;11.40;;;;;;;1.80;96.93;102483.22;4989489;28;20205;-47
2022/01/12 11:06:35;;;;;;;13.73;12.33;;;;;;;1.84;96.62;102477.50;4980371;28;20673;-47
2022/01/12 11:09:01;;;;;;;14.93;13.20;;;;;;;1.82;96.75;102472.31;4987958;28;20185;-47
2022/01/12 11:11:28;;;;;;;14.63;13.03;;;;;;;1.87;96.71;102464.06;4988407;28;20661;-46
2022/01/12 11:13:55;;;;;;;12.07;10.87;;;;;;;1.92;96.39;102455.88;4977308;28;20244;-46
2022/01/12 11:16:22;;;;;;;10.77;9.67;;;;;;;1.96;94.68;102467.16;4980991;28;20193;-46
2022/01/12 11:18:49;;;;;;;12.00;10.77;;;;;;;1.92;93.37;102448.22;4987615;28;20204;-56
2022/01/12 11:21:20;;;;;;;12.83;10.27;;;;;;;2.01;94.56;102445.34;4986378;28;20196;-47
2022/01/12 11:23:46;;;;;;;10.83;9.73;;;;;;;2.10;94.51;102447.59;4985796;28;20217;-47
2022/01/12 11:26:15;;;;;;;10.60;9.53;;;;;;;2.11;93.18;102444.25;4985397;28;20561;-47
2022/01/12 11:28:40;;;;;;;9.97;8.37;;;;;;;2.21;93.15;102440.56;4989190;28;20722;-48
2022/01/12 11:31:08;;;;;;;9.80;8.80;;;;;;;2.24;93.30;102431.41;4983021;28;20348;-48
2022/01/12 11:33:33;;;;;;;11.10;10.07;;;;;;;2.34;93.46;102427.75;4986329;28;20219;-48
2022/01/12 11:36:14;;;;;;;10.73;9.60;;;;;;;2.35;93.40;102426.91;4981510;28;20730;-47
2022/01/12 11:38:40;;;;;;;10.90;9.90;;;;;;;2.40;92.16;102419.56;4985698;28;20645;-47
2022/01/12 11:41:10;;;;;;;10.40;8.90;;;;;;;2.44;91.59;102422.38;4978684;28;20186;-47
2022/01/12 11:43:57;;;;;;;8.93;8.13;;;;;;;2.47;90.43;102408.88;4992297;28;20279;-46
2022/01/12 11:46:28;;;;;;;8.47;7.67;;;;;;;2.53;90.42;102403.25;4985299;28;20193;-48
2022/01/12 11:48:55;;;;;;;9.13;8.13;;;;;;;2.58;90.47;102410.38;4977995;28;20193;-47
2022/01/12 11:51:34;;;;;;;8.07;6.73;;;;;;;2.69;90.91;102405.03;4988251;28;20219;-47
2022/01/12 11:54:12;;;;;;;7.47;6.77;;;;;;;2.80;90.19;102392.88;4985277;28;20209;-47
2022/01/12 11:56:50;;;;;;;7.70;7.00;;;;;;;2.80;89.36;102401.41;4992437;28;20192;-48
2022/01/12 11:59:16;;;;;;;7.93;7.13;;;;;;;2.87;90.01;102395.81;4982419;28;20191;-48
2022/01/12 12:01:51;;;;;;;7.83;7.13;;;;;;;2.90;88.54;102405.38;4982720;28;20189;-48
2022/01/12 12:04:21;;;;;;;7.07;6.47;;;;;;;2.92;88.20;102403.78;4991340;28;20292;-48
2022/01/12 12:06:47;;;;;;;10.67;9.30;;;;;;;2.95;88.44;102401.38;4992417;28;20189;-47
2022/01/12 12:09:18;;;;;;;11.07;9.83;;;;;;;3.01;89.66;102401.75;4988650;28;20660;-47
2022/01/12 12:11:51;;;;;;;9.70;8.70;;;;;;;3.01;89.26;102403.44;4992351;28;20185;-47
2022/01/12 12:14:18;;;;;;;14.70;10.50;;;;;;;2.93;88.86;102407.22;4989228;28;20266;-47
2022/01/12 12:16:45;;;;;;;12.07;10.10;;;;;;;2.92;89.30;102402.88;4989222;28;20192;-47
2022/01/12 12:19:11;;;;;;;10.67;9.57;;;;;;;2.89;88.25;102406.16;4986002;28;20663;-47
2022/01/12 12:21:37;;;;;;;14.67;10.97;;;;;;;2.89;88.60;102406.16;4984151;28;20221;-47
2022/01/12 12:24:14;;;;;;;10.93;9.93;;;;;;;2.92;90.02;102414.03;4983641;28;20228;-47
2022/01/12 12:26:54;;;;;;;11.27;10.17;;;;;;;2.96;89.99;102423.59;4978725;28;20197;-47
2022/01/12 12:29:26;;;;;;;10.50;9.53;;;;;;;2.96;89.70;102415.94;4983484;28;20257;-47
2022/01/12 12:31:53;;;;;;;11.10;10.03;;;;;;;2.93;89.22;102417.44;4989144;28;20185;-47